sensor_id;sensor_type;location;lat;lon;timestamp;P1;durP1;ratioP1;P2;durP2;ratioP2
54977;SDS011;40873;47.522;19.106;2024-01-27T08:54:00;4.25;;;0.98;;
54977;SDS011;40873;47.522;19.106;2024-01-27T08:56:29;6.43;;;1.00;;
54977;SDS011;40873;47.522;19.106;2024-01-27T08:58:56;2.58;;;0.90;;
54977;SDS011;40873;47.522;19.106;2024-01-27T09:01:23;3.33;;;0.70;;
54977;SDS011;40873;47.522;19.106;2024-01-27T09:03:50;1.95;;;0.88;;
54977;SDS011;40873;47.522;19.106;2024-01-27T09:06:17;6.38;;;1.60;;
54977;SDS011;40873;47.522;19.106;2024-01-27T09:08:45;2.10;;;0.50;;
54977;SDS011;40873;47.522;19.106;2024-01-27T09:11:13;3.63;;;0.90;;
54977;SDS011;40873;47.522;19.106;2024-01-27T09:13:39;1.30;;;0.63;;
54977;SDS011;40873;47.522;19.106;2024-01-27T09:16:07;4.18;;;0.70;;
54977;SDS011;40873;47.522;19.106;2024-01-27T09:18:40;4.63;;;1.55;;
54977;SDS011;40873;47.522;19.106;2024-01-27T09:21:07;1.98;;;0.70;;
54977;SDS011;40873;47.522;19.106;2024-01-27T09:23:37;2.90;;;0.98;;
54977;SDS011;40873;47.522;19.106;2024-01-27T09:26:04;9.15;;;1.10;;
54977;SDS011;40873;47.522;19.106;2024-01-27T09:28:32;3.35;;;0.70;;
54977;SDS011;40873;47.522;19.106;2024-01-27T09:30:59;1.17;;;0.60;;
54977;SDS011;40873;47.522;19.106;2024-01-27T09:33:27;2.45;;;0.50;;
54977;SDS011;40873;47.522;19.106;2024-01-27T09:35:54;2.03;;;0.88;;
54977;SDS011;40873;47.522;19.106;2024-01-27T09:38:22;2.67;;;0.60;;
54977;SDS011;40873;47.522;19.106;2024-01-27T09:40:50;3.08;;;0.90;;
54977;SDS011;40873;47.522;19.106;2024-01-27T09:43:17;3.35;;;0.70;;
54977;SDS011;40873;47.522;19.106;2024-01-27T09:45:46;3.15;;;0.77;;
54977;SDS011;40873;47.522;19.106;2024-01-27T09:48:13;5.10;;;0.90;;
54977;SDS011;40873;47.522;19.106;2024-01-27T09:50:41;1.10;;;0.43;;
54977;SDS011;40873;47.522;19.106;2024-01-27T09:53:08;3.22;;;0.75;;
54977;SDS011;40873;47.522;19.106;2024-01-27T09:55:36;2.33;;;0.85;;
54977;SDS011;40873;47.522;19.106;2024-01-27T09:58:03;3.47;;;0.63;;
54977;SDS011;40873;47.522;19.106;2024-01-27T10:00:32;4.13;;;1.30;;
54977;SDS011;40873;47.522;19.106;2024-01-27T10:03:02;4.38;;;0.77;;
54977;SDS011;40873;47.522;19.106;2024-01-27T10:05:32;4.30;;;1.38;;
54977;SDS011;40873;47.522;19.106;2024-01-27T10:07:59;3.10;;;0.70;;
54977;SDS011;40873;47.522;19.106;2024-01-27T10:10:26;1.67;;;0.80;;
54977;SDS011;40873;47.522;19.106;2024-01-27T10:12:53;5.20;;;0.60;;
54977;SDS011;40873;47.522;19.106;2024-01-27T10:15:22;4.57;;;0.90;;
54977;SDS011;40873;47.522;19.106;2024-01-27T10:17:50;3.17;;;1.15;;
54977;SDS011;40873;47.522;19.106;2024-01-27T10:20:17;4.88;;;0.80;;
54977;SDS011;40873;47.522;19.106;2024-01-27T10:22:46;3.20;;;0.90;;
54977;SDS011;40873;47.522;19.106;2024-01-27T10:25:16;1.75;;;0.52;;
54977;SDS011;40873;47.522;19.106;2024-01-27T10:27:44;2.22;;;0.85;;
54977;SDS011;40873;47.522;19.106;2024-01-27T10:30:16;4.00;;;0.80;;
54977;SDS011;40873;47.522;19.106;2024-01-27T10:32:54;1.92;;;0.80;;
54977;SDS011;40873;47.522;19.106;2024-01-27T10:35:22;5.07;;;1.80;;
54977;SDS011;40873;47.522;19.106;2024-01-27T10:37:56;4.50;;;0.95;;
54977;SDS011;40873;47.522;19.106;2024-01-27T10:40:25;4.90;;;0.70;;
54977;SDS011;40873;47.522;19.106;2024-01-27T10:43:00;8.20;;;1.55;;
54977;SDS011;40873;47.522;19.106;2024-01-27T10:45:34;2.55;;;0.77;;
54977;SDS011;40873;47.522;19.106;2024-01-27T10:48:03;7.03;;;1.15;;
54977;SDS011;40873;47.522;19.106;2024-01-27T10:50:35;5.22;;;0.82;;
54977;SDS011;40873;47.522;19.106;2024-01-27T10:53:18;4.18;;;0.70;;
54977;SDS011;40873;47.522;19.106;2024-01-27T10:55:51;4.43;;;0.90;;
54977;SDS011;40873;47.522;19.106;2024-01-27T10:58:25;1.63;;;0.60;;
54977;SDS011;40873;47.522;19.106;2024-01-27T11:00:53;3.85;;;0.73;;
54977;SDS011;40873;47.522;19.106;2024-01-27T11:03:22;4.03;;;0.80;;
54977;SDS011;40873;47.522;19.106;2024-01-27T11:05:51;5.63;;;0.70;;
54977;SDS011;40873;47.522;19.106;2024-01-27T11:08:19;26.58;;;1.33;;
54977;SDS011;40873;47.522;19.106;2024-01-27T11:10:50;3.13;;;0.60;;
54977;SDS011;40873;47.522;19.106;2024-01-27T11:13:18;3.03;;;0.75;;
54977;SDS011;40873;47.522;19.106;2024-01-27T11:15:52;2.03;;;0.63;;
54977;SDS011;40873;47.522;19.106;2024-01-27T11:18:22;6.28;;;1.02;;
54977;SDS011;40873;47.522;19.106;2024-01-27T11:20:53;4.30;;;0.75;;
54977;SDS011;40873;47.522;19.106;2024-01-27T11:23:32;3.92;;;0.70;;
54977;SDS011;40873;47.522;19.106;2024-01-27T11:26:04;6.07;;;0.75;;
54977;SDS011;40873;47.522;19.106;2024-01-27T11:28:35;4.30;;;0.60;;
54977;SDS011;40873;47.522;19.106;2024-01-27T11:31:17;3.67;;;0.98;;
54977;SDS011;40873;47.522;19.106;2024-01-27T11:33:50;3.70;;;0.70;;
54977;SDS011;40873;47.522;19.106;2024-01-27T11:36:21;4.82;;;0.90;;
54977;SDS011;40873;47.522;19.106;2024-01-27T11:38:51;3.20;;;0.88;;
54977;SDS011;40873;47.522;19.106;2024-01-27T11:41:23;3.17;;;1.00;;
54977;SDS011;40873;47.522;19.106;2024-01-27T11:43:54;4.47;;;0.95;;
54977;SDS011;40873;47.522;19.106;2024-01-27T11:46:23;6.80;;;0.80;;
54977;SDS011;40873;47.522;19.106;2024-01-27T11:48:50;4.57;;;1.20;;
54977;SDS011;40873;47.522;19.106;2024-01-27T11:51:17;6.32;;;1.00;;
54977;SDS011;40873;47.522;19.106;2024-01-27T11:53:50;4.85;;;1.05;;
54977;SDS011;40873;47.522;19.106;2024-01-27T11:56:17;5.88;;;0.85;;
54977;SDS011;40873;47.522;19.106;2024-01-27T11:58:47;3.88;;;1.48;;
54977;SDS011;40873;47.522;19.106;2024-01-27T12:01:15;2.95;;;0.95;;
54977;SDS011;40873;47.522;19.106;2024-01-27T12:03:43;3.72;;;0.90;;
54977;SDS011;40873;47.522;19.106;2024-01-27T12:06:12;3.95;;;1.00;;
54977;SDS011;40873;47.522;19.106;2024-01-27T12:08:41;6.53;;;0.70;;
54977;SDS011;40873;47.522;19.106;2024-01-27T12:11:15;7.38;;;1.48;;
54977;SDS011;40873;47.522;19.106;2024-01-27T12:13:49;3.33;;;0.90;;
54977;SDS011;40873;47.522;19.106;2024-01-27T12:16:21;2.80;;;0.70;;
54977;SDS011;40873;47.522;19.106;2024-01-27T12:18:52;5.13;;;0.90;;
54977;SDS011;40873;47.522;19.106;2024-01-27T12:21:23;3.13;;;0.98;;
54977;SDS011;40873;47.522;19.106;2024-01-27T12:23:51;2.42;;;0.80;;
54977;SDS011;40873;47.522;19.106;2024-01-27T12:26:24;6.40;;;1.48;;
54977;SDS011;40873;47.522;19.106;2024-01-27T12:28:51;2.92;;;0.80;;
54977;SDS011;40873;47.522;19.106;2024-01-27T12:31:20;5.03;;;1.10;;
54977;SDS011;40873;47.522;19.106;2024-01-27T12:33:52;4.13;;;0.80;;
54977;SDS011;40873;47.522;19.106;2024-01-27T12:36:22;6.07;;;1.40;;
54977;SDS011;40873;47.522;19.106;2024-01-27T12:39:00;2.53;;;0.90;;
54977;SDS011;40873;47.522;19.106;2024-01-27T12:41:29;3.35;;;0.93;;
54977;SDS011;40873;47.522;19.106;2024-01-27T12:43:56;3.17;;;0.90;;
54977;SDS011;40873;47.522;19.106;2024-01-27T12:46:23;7.93;;;2.22;;
54977;SDS011;40873;47.522;19.106;2024-01-27T12:48:50;5.80;;;0.98;;
54977;SDS011;40873;47.522;19.106;2024-01-27T12:51:18;4.15;;;0.98;;
54977;SDS011;40873;47.522;19.106;2024-01-27T12:53:46;5.03;;;0.95;;
54977;SDS011;40873;47.522;19.106;2024-01-27T12:56:14;7.78;;;0.95;;
54977;SDS011;40873;47.522;19.106;2024-01-27T12:58:41;5.05;;;0.90;;
54977;SDS011;40873;47.522;19.106;2024-01-27T13:01:09;6.22;;;1.10;;
54977;SDS011;40873;47.522;19.106;2024-01-27T13:03:36;2.53;;;1.00;;
54977;SDS011;40873;47.522;19.106;2024-01-27T13:06:07;2.95;;;1.13;;
54977;SDS011;40873;47.522;19.106;2024-01-27T13:08:34;7.75;;;1.20;;
54977;SDS011;40873;47.522;19.106;2024-01-27T13:11:03;7.28;;;0.98;;
54977;SDS011;40873;47.522;19.106;2024-01-27T13:13:30;3.85;;;0.85;;
54977;SDS011;40873;47.522;19.106;2024-01-27T13:15:57;4.85;;;1.38;;
54977;SDS011;40873;47.522;19.106;2024-01-27T13:18:24;4.78;;;1.20;;
54977;SDS011;40873;47.522;19.106;2024-01-27T13:20:51;3.75;;;1.05;;
54977;SDS011;40873;47.522;19.106;2024-01-27T13:23:18;6.60;;;1.02;;
54977;SDS011;40873;47.522;19.106;2024-01-27T13:25:46;2.55;;;0.95;;
54977;SDS011;40873;47.522;19.106;2024-01-27T13:28:33;4.38;;;0.80;;
54977;SDS011;40873;47.522;19.106;2024-01-27T13:31:00;7.60;;;1.45;;
54977;SDS011;40873;47.522;19.106;2024-01-27T13:33:30;4.10;;;1.23;;
54977;SDS011;40873;47.522;19.106;2024-01-27T13:35:57;4.97;;;1.35;;
54977;SDS011;40873;47.522;19.106;2024-01-27T13:38:24;3.50;;;2.05;;
54977;SDS011;40873;47.522;19.106;2024-01-27T13:40:52;3.13;;;0.82;;
54977;SDS011;40873;47.522;19.106;2024-01-27T13:43:19;4.13;;;1.00;;
54977;SDS011;40873;47.522;19.106;2024-01-27T13:45:46;3.47;;;1.13;;
54977;SDS011;40873;47.522;19.106;2024-01-27T13:48:14;4.05;;;1.05;;
54977;SDS011;40873;47.522;19.106;2024-01-27T13:50:42;5.72;;;1.67;;
54977;SDS011;40873;47.522;19.106;2024-01-27T13:53:12;4.53;;;1.48;;
54977;SDS011;40873;47.522;19.106;2024-01-27T13:55:39;3.20;;;1.17;;
54977;SDS011;40873;47.522;19.106;2024-01-27T13:58:07;4.25;;;1.30;;
54977;SDS011;40873;47.522;19.106;2024-01-27T14:00:34;3.08;;;1.00;;
54977;SDS011;40873;47.522;19.106;2024-01-27T14:03:02;9.10;;;1.38;;
54977;SDS011;40873;47.522;19.106;2024-01-27T14:05:30;4.13;;;1.00;;
54977;SDS011;40873;47.522;19.106;2024-01-27T14:07:59;3.13;;;1.45;;
54977;SDS011;40873;47.522;19.106;2024-01-27T14:10:26;2.58;;;0.90;;
54977;SDS011;40873;47.522;19.106;2024-01-27T14:12:53;6.43;;;1.50;;
54977;SDS011;40873;47.522;19.106;2024-01-27T14:15:21;3.70;;;1.10;;
54977;SDS011;40873;47.522;19.106;2024-01-27T14:17:48;2.67;;;0.93;;
54977;SDS011;40873;47.522;19.106;2024-01-27T14:20:15;3.95;;;1.02;;
54977;SDS011;40873;47.522;19.106;2024-01-27T14:22:42;2.17;;;0.95;;
54977;SDS011;40873;47.522;19.106;2024-01-27T14:25:10;5.45;;;1.30;;
54977;SDS011;40873;47.522;19.106;2024-01-27T14:27:37;5.13;;;1.35;;
54977;SDS011;40873;47.522;19.106;2024-01-27T14:30:05;7.07;;;1.50;;
54977;SDS011;40873;47.522;19.106;2024-01-27T14:32:33;4.40;;;1.25;;
54977;SDS011;40873;47.522;19.106;2024-01-27T14:35:01;5.95;;;1.15;;
54977;SDS011;40873;47.522;19.106;2024-01-27T14:37:32;4.63;;;1.05;;
54977;SDS011;40873;47.522;19.106;2024-01-27T14:40:02;3.65;;;0.95;;
54977;SDS011;40873;47.522;19.106;2024-01-27T14:42:31;4.63;;;1.02;;
54977;SDS011;40873;47.522;19.106;2024-01-27T14:45:00;4.05;;;1.13;;
54977;SDS011;40873;47.522;19.106;2024-01-27T14:47:27;5.25;;;1.00;;
54977;SDS011;40873;47.522;19.106;2024-01-27T14:49:54;5.70;;;1.52;;
54977;SDS011;40873;47.522;19.106;2024-01-27T14:52:22;5.05;;;1.23;;
54977;SDS011;40873;47.522;19.106;2024-01-27T14:54:50;6.88;;;1.30;;
54977;SDS011;40873;47.522;19.106;2024-01-27T14:57:17;6.80;;;1.42;;
54977;SDS011;40873;47.522;19.106;2024-01-27T14:59:44;3.42;;;1.30;;
54977;SDS011;40873;47.522;19.106;2024-01-27T15:02:11;5.05;;;1.08;;
54977;SDS011;40873;47.522;19.106;2024-01-27T15:04:38;4.07;;;1.00;;
54977;SDS011;40873;47.522;19.106;2024-01-27T15:07:05;2.33;;;1.00;;
54977;SDS011;40873;47.522;19.106;2024-01-27T15:09:33;9.38;;;2.03;;
54977;SDS011;40873;47.522;19.106;2024-01-27T15:12:02;4.25;;;0.93;;
54977;SDS011;40873;47.522;19.106;2024-01-27T15:14:30;6.78;;;1.67;;
54977;SDS011;40873;47.522;19.106;2024-01-27T15:16:58;5.65;;;1.27;;
54977;SDS011;40873;47.522;19.106;2024-01-27T15:19:26;4.95;;;1.15;;
54977;SDS011;40873;47.522;19.106;2024-01-27T15:21:57;5.28;;;1.10;;
54977;SDS011;40873;47.522;19.106;2024-01-27T15:24:24;4.13;;;1.13;;
54977;SDS011;40873;47.522;19.106;2024-01-27T15:26:53;6.07;;;1.40;;
54977;SDS011;40873;47.522;19.106;2024-01-27T15:29:31;7.30;;;1.42;;
54977;SDS011;40873;47.522;19.106;2024-01-27T15:31:58;8.30;;;1.52;;
54977;SDS011;40873;47.522;19.106;2024-01-27T15:34:25;6.32;;;1.52;;
54977;SDS011;40873;47.522;19.106;2024-01-27T15:36:53;7.93;;;1.40;;
54977;SDS011;40873;47.522;19.106;2024-01-27T15:39:20;7.25;;;1.60;;
54977;SDS011;40873;47.522;19.106;2024-01-27T15:41:48;9.60;;;1.50;;
54977;SDS011;40873;47.522;19.106;2024-01-27T15:44:15;4.20;;;1.25;;
54977;SDS011;40873;47.522;19.106;2024-01-27T15:46:42;8.75;;;2.08;;
54977;SDS011;40873;47.522;19.106;2024-01-27T15:49:09;6.13;;;1.55;;
54977;SDS011;40873;47.522;19.106;2024-01-27T15:51:36;6.05;;;1.65;;
54977;SDS011;40873;47.522;19.106;2024-01-27T15:54:04;5.68;;;1.38;;
54977;SDS011;40873;47.522;19.106;2024-01-27T15:56:31;8.40;;;1.63;;
54977;SDS011;40873;47.522;19.106;2024-01-27T15:58:58;4.47;;;1.00;;
54977;SDS011;40873;47.522;19.106;2024-01-27T16:01:29;5.43;;;1.63;;
54977;SDS011;40873;47.522;19.106;2024-01-27T16:03:57;11.43;;;1.48;;
54977;SDS011;40873;47.522;19.106;2024-01-27T16:06:25;5.00;;;1.50;;
54977;SDS011;40873;47.522;19.106;2024-01-27T16:08:53;4.65;;;1.63;;
54977;SDS011;40873;47.522;19.106;2024-01-27T16:11:20;4.15;;;1.55;;
54977;SDS011;40873;47.522;19.106;2024-01-27T16:13:47;4.82;;;1.20;;
54977;SDS011;40873;47.522;19.106;2024-01-27T16:16:14;9.45;;;1.70;;
54977;SDS011;40873;47.522;19.106;2024-01-27T16:18:42;5.78;;;1.17;;
54977;SDS011;40873;47.522;19.106;2024-01-27T16:21:09;7.25;;;1.30;;
54977;SDS011;40873;47.522;19.106;2024-01-27T16:23:38;4.70;;;1.35;;
54977;SDS011;40873;47.522;19.106;2024-01-27T16:26:05;2.13;;;1.23;;
54977;SDS011;40873;47.522;19.106;2024-01-27T16:28:32;2.83;;;1.20;;
54977;SDS011;40873;47.522;19.106;2024-01-27T16:31:00;4.30;;;1.25;;
54977;SDS011;40873;47.522;19.106;2024-01-27T16:33:27;6.72;;;1.40;;
54977;SDS011;40873;47.522;19.106;2024-01-27T16:35:58;3.95;;;1.30;;
54977;SDS011;40873;47.522;19.106;2024-01-27T16:38:26;10.32;;;1.30;;
54977;SDS011;40873;47.522;19.106;2024-01-27T16:40:52;3.28;;;1.23;;
54977;SDS011;40873;47.522;19.106;2024-01-27T16:43:20;7.85;;;1.60;;
54977;SDS011;40873;47.522;19.106;2024-01-27T16:45:47;3.80;;;1.65;;
54977;SDS011;40873;47.522;19.106;2024-01-27T16:48:15;3.17;;;1.55;;
54977;SDS011;40873;47.522;19.106;2024-01-27T16:50:43;5.97;;;2.03;;
54977;SDS011;40873;47.522;19.106;2024-01-27T16:53:11;6.63;;;1.73;;
54977;SDS011;40873;47.522;19.106;2024-01-27T16:55:38;4.90;;;1.40;;
54977;SDS011;40873;47.522;19.106;2024-01-27T16:58:07;7.70;;;1.42;;
54977;SDS011;40873;47.522;19.106;2024-01-27T17:00:35;2.80;;;1.30;;
54977;SDS011;40873;47.522;19.106;2024-01-27T17:03:02;5.45;;;1.65;;
54977;SDS011;40873;47.522;19.106;2024-01-27T17:05:29;8.35;;;1.40;;
54977;SDS011;40873;47.522;19.106;2024-01-27T17:07:56;5.30;;;1.90;;
54977;SDS011;40873;47.522;19.106;2024-01-27T17:10:23;7.57;;;1.77;;
54977;SDS011;40873;47.522;19.106;2024-01-27T17:12:51;14.75;;;2.47;;
54977;SDS011;40873;47.522;19.106;2024-01-27T17:15:18;6.55;;;3.30;;
54977;SDS011;40873;47.522;19.106;2024-01-27T17:17:47;3.78;;;1.23;;
54977;SDS011;40873;47.522;19.106;2024-01-27T17:20:14;6.10;;;1.75;;
54977;SDS011;40873;47.522;19.106;2024-01-27T17:22:41;5.38;;;1.42;;
54977;SDS011;40873;47.522;19.106;2024-01-27T17:25:08;6.93;;;1.38;;
54977;SDS011;40873;47.522;19.106;2024-01-27T17:27:35;4.22;;;1.42;;
54977;SDS011;40873;47.522;19.106;2024-01-27T17:30:03;11.55;;;2.03;;
54977;SDS011;40873;47.522;19.106;2024-01-27T17:32:36;15.88;;;2.33;;
54977;SDS011;40873;47.522;19.106;2024-01-27T17:35:04;5.63;;;1.58;;
54977;SDS011;40873;47.522;19.106;2024-01-27T17:37:34;8.93;;;1.85;;
54977;SDS011;40873;47.522;19.106;2024-01-27T17:40:03;10.40;;;2.17;;
54977;SDS011;40873;47.522;19.106;2024-01-27T17:42:33;7.78;;;1.60;;
54977;SDS011;40873;47.522;19.106;2024-01-27T17:45:03;4.18;;;1.65;;
54977;SDS011;40873;47.522;19.106;2024-01-27T17:47:33;8.90;;;1.88;;
54977;SDS011;40873;47.522;19.106;2024-01-27T17:50:02;4.20;;;2.03;;
54977;SDS011;40873;47.522;19.106;2024-01-27T17:52:32;5.78;;;1.13;;
54977;SDS011;40873;47.522;19.106;2024-01-27T17:54:59;5.57;;;1.75;;
54977;SDS011;40873;47.522;19.106;2024-01-27T17:57:27;4.40;;;1.75;;
54977;SDS011;40873;47.522;19.106;2024-01-27T17:59:55;7.00;;;1.80;;
54977;SDS011;40873;47.522;19.106;2024-01-27T18:02:25;11.15;;;2.20;;
54977;SDS011;40873;47.522;19.106;2024-01-27T18:04:53;6.43;;;1.92;;
54977;SDS011;40873;47.522;19.106;2024-01-27T18:07:21;3.20;;;1.75;;
54977;SDS011;40873;47.522;19.106;2024-01-27T18:09:49;5.97;;;1.80;;
54977;SDS011;40873;47.522;19.106;2024-01-27T18:12:16;5.85;;;1.75;;
54977;SDS011;40873;47.522;19.106;2024-01-27T18:14:43;7.32;;;2.17;;
54977;SDS011;40873;47.522;19.106;2024-01-27T18:17:10;3.13;;;1.35;;
54977;SDS011;40873;47.522;19.106;2024-01-27T18:19:37;3.78;;;1.98;;
54977;SDS011;40873;47.522;19.106;2024-01-27T18:22:07;8.93;;;2.53;;
54977;SDS011;40873;47.522;19.106;2024-01-27T18:24:36;7.13;;;1.40;;
54977;SDS011;40873;47.522;19.106;2024-01-27T18:27:03;9.02;;;2.40;;
54977;SDS011;40873;47.522;19.106;2024-01-27T18:29:30;5.88;;;1.95;;
54977;SDS011;40873;47.522;19.106;2024-01-27T18:31:58;3.67;;;1.55;;
54977;SDS011;40873;47.522;19.106;2024-01-27T18:34:26;4.22;;;1.50;;
54977;SDS011;40873;47.522;19.106;2024-01-27T18:36:54;7.53;;;1.30;;
54977;SDS011;40873;47.522;19.106;2024-01-27T18:39:20;8.32;;;1.80;;
54977;SDS011;40873;47.522;19.106;2024-01-27T18:41:48;6.97;;;2.10;;
54977;SDS011;40873;47.522;19.106;2024-01-27T18:44:15;4.53;;;1.67;;
54977;SDS011;40873;47.522;19.106;2024-01-27T18:46:45;3.65;;;1.40;;
54977;SDS011;40873;47.522;19.106;2024-01-27T18:49:12;4.85;;;1.70;;
54977;SDS011;40873;47.522;19.106;2024-01-27T18:51:42;8.82;;;2.38;;
54977;SDS011;40873;47.522;19.106;2024-01-27T18:54:10;9.02;;;2.30;;
54977;SDS011;40873;47.522;19.106;2024-01-27T18:56:39;6.00;;;2.03;;
54977;SDS011;40873;47.522;19.106;2024-01-27T18:59:06;12.02;;;2.10;;
54977;SDS011;40873;47.522;19.106;2024-01-27T19:01:35;8.57;;;2.50;;
54977;SDS011;40873;47.522;19.106;2024-01-27T19:04:05;6.03;;;2.95;;
54977;SDS011;40873;47.522;19.106;2024-01-27T19:06:32;6.18;;;2.05;;
54977;SDS011;40873;47.522;19.106;2024-01-27T19:08:59;8.48;;;2.55;;
54977;SDS011;40873;47.522;19.106;2024-01-27T19:11:27;8.52;;;2.15;;
54977;SDS011;40873;47.522;19.106;2024-01-27T19:13:57;5.93;;;2.13;;
54977;SDS011;40873;47.522;19.106;2024-01-27T19:16:24;5.38;;;1.90;;
54977;SDS011;40873;47.522;19.106;2024-01-27T19:18:51;5.13;;;1.50;;
54977;SDS011;40873;47.522;19.106;2024-01-27T19:21:19;6.60;;;1.60;;
54977;SDS011;40873;47.522;19.106;2024-01-27T19:23:46;5.63;;;1.80;;
54977;SDS011;40873;47.522;19.106;2024-01-27T19:26:16;6.35;;;2.85;;
54977;SDS011;40873;47.522;19.106;2024-01-27T19:28:43;4.72;;;1.92;;
54977;SDS011;40873;47.522;19.106;2024-01-27T19:31:12;8.52;;;2.30;;
54977;SDS011;40873;47.522;19.106;2024-01-27T19:33:40;6.70;;;1.90;;
54977;SDS011;40873;47.522;19.106;2024-01-27T19:36:08;8.70;;;1.95;;
54977;SDS011;40873;47.522;19.106;2024-01-27T19:38:38;5.43;;;1.70;;
54977;SDS011;40873;47.522;19.106;2024-01-27T19:41:09;7.47;;;2.22;;
54977;SDS011;40873;47.522;19.106;2024-01-27T19:43:44;4.88;;;1.50;;
54977;SDS011;40873;47.522;19.106;2024-01-27T19:46:14;6.97;;;2.00;;
54977;SDS011;40873;47.522;19.106;2024-01-27T19:48:42;6.45;;;2.08;;
54977;SDS011;40873;47.522;19.106;2024-01-27T19:51:10;9.07;;;1.90;;
54977;SDS011;40873;47.522;19.106;2024-01-27T19:53:37;6.70;;;2.10;;
54977;SDS011;40873;47.522;19.106;2024-01-27T19:56:04;3.03;;;1.58;;
54977;SDS011;40873;47.522;19.106;2024-01-27T19:58:35;12.05;;;2.25;;
54977;SDS011;40873;47.522;19.106;2024-01-27T20:01:02;6.80;;;1.92;;
54977;SDS011;40873;47.522;19.106;2024-01-27T20:03:29;4.68;;;1.77;;
54977;SDS011;40873;47.522;19.106;2024-01-27T20:05:57;5.32;;;1.75;;
54977;SDS011;40873;47.522;19.106;2024-01-27T20:08:24;5.18;;;2.05;;
54977;SDS011;40873;47.522;19.106;2024-01-27T20:10:51;7.32;;;2.05;;
54977;SDS011;40873;47.522;19.106;2024-01-27T20:13:18;5.47;;;2.00;;
54977;SDS011;40873;47.522;19.106;2024-01-27T20:15:48;7.65;;;1.95;;
54977;SDS011;40873;47.522;19.106;2024-01-27T20:18:15;5.38;;;1.88;;
54977;SDS011;40873;47.522;19.106;2024-01-27T20:20:43;9.98;;;2.40;;
54977;SDS011;40873;47.522;19.106;2024-01-27T20:23:09;5.60;;;2.03;;
54977;SDS011;40873;47.522;19.106;2024-01-27T20:25:37;6.38;;;1.92;;
54977;SDS011;40873;47.522;19.106;2024-01-27T20:28:04;8.07;;;2.05;;
54977;SDS011;40873;47.522;19.106;2024-01-27T20:30:32;8.50;;;2.00;;
54977;SDS011;40873;47.522;19.106;2024-01-27T20:33:00;6.10;;;2.90;;
54977;SDS011;40873;47.522;19.106;2024-01-27T20:35:27;6.50;;;2.38;;
54977;SDS011;40873;47.522;19.106;2024-01-27T20:37:55;7.75;;;2.38;;
54977;SDS011;40873;47.522;19.106;2024-01-27T20:40:23;7.30;;;2.75;;
54977;SDS011;40873;47.522;19.106;2024-01-27T20:42:54;5.82;;;2.55;;
54977;SDS011;40873;47.522;19.106;2024-01-27T20:45:21;3.97;;;1.70;;
54977;SDS011;40873;47.522;19.106;2024-01-27T20:47:48;5.88;;;2.53;;
54977;SDS011;40873;47.522;19.106;2024-01-27T20:50:16;6.43;;;2.15;;
54977;SDS011;40873;47.522;19.106;2024-01-27T20:52:43;8.40;;;2.22;;
54977;SDS011;40873;47.522;19.106;2024-01-27T20:55:10;7.53;;;2.50;;
54977;SDS011;40873;47.522;19.106;2024-01-27T20:57:37;8.25;;;2.30;;
54977;SDS011;40873;47.522;19.106;2024-01-27T21:00:05;7.03;;;1.90;;
54977;SDS011;40873;47.522;19.106;2024-01-27T21:02:33;11.23;;;2.70;;
54977;SDS011;40873;47.522;19.106;2024-01-27T21:05:01;7.63;;;2.40;;
54977;SDS011;40873;47.522;19.106;2024-01-27T21:07:28;6.22;;;1.95;;
54977;SDS011;40873;47.522;19.106;2024-01-27T21:09:55;5.10;;;2.10;;
54977;SDS011;40873;47.522;19.106;2024-01-27T21:12:22;9.82;;;2.78;;
54977;SDS011;40873;47.522;19.106;2024-01-27T21:14:49;4.28;;;2.22;;
54977;SDS011;40873;47.522;19.106;2024-01-27T21:17:16;11.05;;;2.38;;
54977;SDS011;40873;47.522;19.106;2024-01-27T21:19:43;9.18;;;2.67;;
54977;SDS011;40873;47.522;19.106;2024-01-27T21:22:13;7.45;;;2.30;;
54977;SDS011;40873;47.522;19.106;2024-01-27T21:24:40;6.30;;;1.75;;
54977;SDS011;40873;47.522;19.106;2024-01-27T21:27:08;6.70;;;1.92;;
54977;SDS011;40873;47.522;19.106;2024-01-27T21:29:36;5.47;;;2.63;;
54977;SDS011;40873;47.522;19.106;2024-01-27T21:32:03;5.28;;;2.70;;
54977;SDS011;40873;47.522;19.106;2024-01-27T21:34:31;9.70;;;2.55;;
54977;SDS011;40873;47.522;19.106;2024-01-27T21:36:58;8.70;;;2.55;;
54977;SDS011;40873;47.522;19.106;2024-01-27T21:39:25;7.60;;;2.45;;
54977;SDS011;40873;47.522;19.106;2024-01-27T21:41:52;9.02;;;2.20;;
54977;SDS011;40873;47.522;19.106;2024-01-27T21:44:19;3.67;;;2.15;;
54977;SDS011;40873;47.522;19.106;2024-01-27T21:46:46;7.43;;;2.30;;
54977;SDS011;40873;47.522;19.106;2024-01-27T21:49:13;5.20;;;2.10;;
54977;SDS011;40873;47.522;19.106;2024-01-27T21:51:45;7.97;;;2.58;;
54977;SDS011;40873;47.522;19.106;2024-01-27T21:54:17;10.00;;;2.17;;
54977;SDS011;40873;47.522;19.106;2024-01-27T21:56:45;6.22;;;2.03;;
54977;SDS011;40873;47.522;19.106;2024-01-27T21:59:14;10.00;;;2.70;;
54977;SDS011;40873;47.522;19.106;2024-01-27T22:01:42;6.93;;;2.90;;
54977;SDS011;40873;47.522;19.106;2024-01-27T22:04:10;9.13;;;2.50;;
54977;SDS011;40873;47.522;19.106;2024-01-27T22:06:37;7.60;;;2.47;;
54977;SDS011;40873;47.522;19.106;2024-01-27T22:09:04;7.07;;;2.70;;
54977;SDS011;40873;47.522;19.106;2024-01-27T22:11:31;5.78;;;1.98;;
54977;SDS011;40873;47.522;19.106;2024-01-27T22:13:58;8.50;;;2.45;;
54977;SDS011;40873;47.522;19.106;2024-01-27T22:16:25;14.63;;;2.60;;
54977;SDS011;40873;47.522;19.106;2024-01-27T22:18:53;7.53;;;2.28;;
54977;SDS011;40873;47.522;19.106;2024-01-27T22:21:20;12.75;;;2.95;;
54977;SDS011;40873;47.522;19.106;2024-01-27T22:23:48;8.07;;;2.63;;
54977;SDS011;40873;47.522;19.106;2024-01-27T22:26:17;11.52;;;2.85;;
54977;SDS011;40873;47.522;19.106;2024-01-27T22:28:45;5.13;;;2.28;;
54977;SDS011;40873;47.522;19.106;2024-01-27T22:31:15;8.57;;;2.88;;
54977;SDS011;40873;47.522;19.106;2024-01-27T22:33:42;7.28;;;2.60;;
54977;SDS011;40873;47.522;19.106;2024-01-27T22:36:10;10.18;;;2.55;;
54977;SDS011;40873;47.522;19.106;2024-01-27T22:38:40;4.65;;;2.47;;
54977;SDS011;40873;47.522;19.106;2024-01-27T22:41:07;12.13;;;3.17;;
54977;SDS011;40873;47.522;19.106;2024-01-27T22:43:34;8.23;;;2.40;;
54977;SDS011;40873;47.522;19.106;2024-01-27T22:46:01;9.77;;;2.38;;
54977;SDS011;40873;47.522;19.106;2024-01-27T22:48:29;8.50;;;2.60;;
54977;SDS011;40873;47.522;19.106;2024-01-27T22:50:57;5.45;;;2.63;;
54977;SDS011;40873;47.522;19.106;2024-01-27T22:53:25;6.90;;;2.13;;
54977;SDS011;40873;47.522;19.106;2024-01-27T22:55:53;6.13;;;2.83;;
54977;SDS011;40873;47.522;19.106;2024-01-27T22:58:20;7.15;;;2.47;;
54977;SDS011;40873;47.522;19.106;2024-01-27T23:00:47;7.97;;;2.78;;
54977;SDS011;40873;47.522;19.106;2024-01-27T23:03:14;9.55;;;3.47;;
54977;SDS011;40873;47.522;19.106;2024-01-27T23:05:41;9.93;;;2.40;;
54977;SDS011;40873;47.522;19.106;2024-01-27T23:08:09;8.18;;;2.35;;
54977;SDS011;40873;47.522;19.106;2024-01-27T23:10:36;8.60;;;2.45;;
54977;SDS011;40873;47.522;19.106;2024-01-27T23:13:04;11.60;;;4.25;;
54977;SDS011;40873;47.522;19.106;2024-01-27T23:15:30;6.13;;;2.35;;
54977;SDS011;40873;47.522;19.106;2024-01-27T23:17:58;6.70;;;2.40;;
54977;SDS011;40873;47.522;19.106;2024-01-27T23:20:27;11.25;;;2.88;;
54977;SDS011;40873;47.522;19.106;2024-01-27T23:22:54;5.82;;;2.58;;
54977;SDS011;40873;47.522;19.106;2024-01-27T23:25:21;8.02;;;2.40;;
54977;SDS011;40873;47.522;19.106;2024-01-27T23:27:48;5.55;;;2.35;;
54977;SDS011;40873;47.522;19.106;2024-01-27T23:30:15;6.63;;;2.42;;
54977;SDS011;40873;47.522;19.106;2024-01-27T23:32:43;4.22;;;1.73;;